createdAt,value
2023-01-19T00:01:44.936Z,94851.13
2023-01-19T00:04:13.418Z,94821.75
2023-01-19T00:06:41.543Z,94900.31
2023-01-19T00:09:10.981Z,94858.59
2023-01-19T00:11:39.427Z,94847.41
2023-01-19T00:14:07.641Z,94858.28
2023-01-19T00:16:35.734Z,94851.13
2023-01-19T00:19:04.293Z,94846.75
2023-01-19T00:21:32.631Z,94829.41
2023-01-19T00:24:00.781Z,94848.06
2023-01-19T00:26:30.265Z,94818.84
2023-01-19T00:28:58.321Z,94807.16
2023-01-19T00:31:26.679Z,94809.13
2023-01-19T00:33:54.717Z,94831.81
2023-01-19T00:36:22.809Z,94804.41
2023-01-19T00:38:51.025Z,94765.97
2023-01-19T00:41:19.506Z,94749.59
2023-01-19T00:43:48.107Z,94811.88
2023-01-19T00:46:16.327Z,94839.94
2023-01-19T00:48:45.050Z,94823.72
2023-01-19T00:51:13.779Z,94820.31
2023-01-19T00:53:41.808Z,94818.53
2023-01-19T00:56:09.778Z,94813.66
2023-01-19T00:58:38.164Z,94834.91
2023-01-19T01:01:08.066Z,94857.31
2023-01-19T01:03:36.066Z,94860.72
2023-01-19T01:06:04.567Z,94830.69
2023-01-19T01:08:33.324Z,94793.69
2023-01-19T01:11:02.044Z,94814.63
2023-01-19T01:13:33.550Z,94836.69
2023-01-19T01:16:02.749Z,94842.69
2023-01-19T01:18:32.463Z,94843.00
2023-01-19T01:21:03.371Z,94863.31
2023-01-19T01:23:31.568Z,94876.97
2023-01-19T01:25:59.450Z,94889.44
2023-01-19T01:28:27.678Z,94869.78
2023-01-19T01:30:56.490Z,94871.28
2023-01-19T01:33:40.791Z,94876.31
2023-01-19T01:36:11.737Z,94891.88
2023-01-19T01:38:40.238Z,94876.31
2023-01-19T01:41:09.216Z,94894.81
2023-01-19T01:43:45.703Z,94931.47
2023-01-19T01:46:15.727Z,94981.19
2023-01-19T01:48:47.777Z,95053.94
2023-01-19T01:51:25.810Z,95116.03
2023-01-19T01:54:04.400Z,95129.53
2023-01-19T01:56:37.040Z,95221.41
2023-01-19T01:59:10.433Z,95288.56
2023-01-19T02:01:56.377Z,95370.28
2023-01-19T02:04:25.226Z,95390.47
2023-01-19T02:07:12.333Z,95395.81
2023-01-19T02:09:58.100Z,95409.56
2023-01-19T02:12:46.065Z,95366.22
2023-01-19T02:15:18.612Z,95340.84
2023-01-19T02:17:47.009Z,95281.91
2023-01-19T02:20:15.076Z,95264.66
2023-01-19T02:22:49.696Z,95252.63
2023-01-19T02:25:22.790Z,95222.38
2023-01-19T02:27:53.169Z,95167.03
2023-01-19T02:30:21.457Z,95199.63
2023-01-19T02:32:50.131Z,95178.50
2023-01-19T02:35:18.593Z,95133.72
2023-01-19T02:37:46.798Z,95151.47
2023-01-19T02:40:27.906Z,95144.78
2023-01-19T02:43:01.074Z,95211.16
2023-01-19T02:45:30.216Z,95239.78
2023-01-19T02:47:58.340Z,95199.53
2023-01-19T02:50:38.334Z,95257.81
2023-01-19T02:53:18.799Z,95256.63
2023-01-19T02:55:55.279Z,95347.28
2023-01-19T02:58:34.863Z,95407.94
2023-01-19T03:01:12.627Z,95396.63
2023-01-19T03:03:51.614Z,95445.22
2023-01-19T03:06:28.719Z,95475.59
2023-01-19T03:09:03.701Z,95486.56
2023-01-19T03:11:39.925Z,95530.75
2023-01-19T03:14:13.376Z,95551.59
2023-01-19T03:16:45.121Z,95539.22
2023-01-19T03:19:19.212Z,95534.88
2023-01-19T03:21:51.399Z,95604.09
2023-01-19T03:24:22.253Z,95635.41
2023-01-19T03:26:58.881Z,95646.97
2023-01-19T03:29:31.720Z,95686.13
2023-01-19T03:32:02.774Z,95706.47
2023-01-19T03:34:31.915Z,95714.31
2023-01-19T03:37:04.429Z,95717.09
2023-01-19T03:39:32.810Z,95745.66
2023-01-19T03:42:06.082Z,95751.44
2023-01-19T03:44:38.525Z,95812.53
2023-01-19T03:47:08.837Z,95849.66
2023-01-19T03:49:39.032Z,95888.66
2023-01-19T03:52:08.611Z,95878.63
2023-01-19T03:54:36.764Z,95938.47
2023-01-19T03:57:06.075Z,95946.16
2023-01-19T03:59:34.678Z,95953.88
2023-01-19T04:02:02.952Z,95901.41
2023-01-19T04:04:32.805Z,95840.78
2023-01-19T04:07:01.564Z,95815.00
2023-01-19T04:09:29.910Z,95769.47
2023-01-19T04:11:57.929Z,95741.44
2023-01-19T04:14:29.616Z,95730.19
2023-01-19T04:16:57.479Z,95696.53
2023-01-19T04:19:25.812Z,95687.25
2023-01-19T04:21:53.768Z,95644.69
2023-01-19T04:24:22.072Z,95595.91
2023-01-19T04:26:52.470Z,95549.16
2023-01-19T04:29:20.618Z,95547.38
2023-01-19T04:31:50.373Z,95531.34
2023-01-19T04:34:18.481Z,95534.47
2023-01-19T04:36:47.041Z,95529.78
2023-01-19T04:39:15.372Z,95494.53
2023-01-19T04:41:43.448Z,95458.88
2023-01-19T04:44:11.404Z,95415.75
2023-01-19T04:46:39.350Z,95378.59
2023-01-19T04:49:09.844Z,95376.00
2023-01-19T04:51:37.965Z,95393.59
2023-01-19T04:54:07.005Z,95387.22
2023-01-19T04:56:34.983Z,95398.13
2023-01-19T04:59:05.092Z,95355.00
2023-01-19T05:01:34.178Z,95319.03
2023-01-19T05:04:03.756Z,95307.66
2023-01-19T05:06:33.307Z,95277.34
2023-01-19T05:09:01.298Z,95231.16
2023-01-19T05:11:29.230Z,95218.97
2023-01-19T05:13:57.141Z,95214.91
2023-01-19T05:16:24.973Z,95199.28
2023-01-19T05:18:52.904Z,95262.72
2023-01-19T05:21:21.248Z,95330.09
2023-01-19T05:23:50.533Z,95367.03
2023-01-19T05:26:18.749Z,95357.44
2023-01-19T05:28:46.826Z,95386.75
2023-01-19T05:31:14.857Z,95355.78
2023-01-19T05:33:43.185Z,95351.38
2023-01-19T05:36:11.364Z,95370.78
2023-01-19T05:38:39.328Z,95342.31
2023-01-19T05:41:08.817Z,95327.72
2023-01-19T05:43:36.784Z,95351.50
2023-01-19T05:46:05.520Z,95366.03
2023-01-19T05:48:33.583Z,95403.03
2023-01-19T05:51:02.180Z,95369.13
2023-01-19T05:53:30.347Z,95406.31
2023-01-19T05:56:01.623Z,95397.84
2023-01-19T05:58:30.934Z,95367.03
2023-01-19T06:01:02.933Z,95320.34
2023-01-19T06:03:31.085Z,95349.94
2023-01-19T06:05:59.684Z,95305.66
2023-01-19T06:08:28.134Z,95263.84
2023-01-19T06:10:56.088Z,95212.97
2023-01-19T06:13:24.008Z,95190.19
2023-01-19T06:15:59.329Z,95156.50
2023-01-19T06:18:27.783Z,95159.94
2023-01-19T06:20:58.855Z,95216.34
2023-01-19T06:23:26.944Z,95255.25
2023-01-19T06:25:55.101Z,95308.31
2023-01-19T06:28:23.393Z,95335.31
2023-01-19T06:30:52.454Z,95324.25
2023-01-19T06:33:22.261Z,95336.28
2023-01-19T06:35:51.460Z,95301.09
2023-01-19T06:38:19.662Z,95303.41
2023-01-19T06:40:53.684Z,95287.44
2023-01-19T06:43:22.018Z,95249.38
2023-01-19T06:45:50.511Z,95205.47
2023-01-19T06:48:19.281Z,95244.81
2023-01-19T06:50:49.946Z,95259.78
2023-01-19T06:53:20.839Z,95321.47
2023-01-19T06:55:48.804Z,95377.94
2023-01-19T06:58:16.896Z,95437.72
2023-01-19T07:00:45.073Z,95457.41
2023-01-19T07:03:21.467Z,95536.63
2023-01-19T07:05:54.408Z,95537.13
2023-01-19T07:08:22.684Z,95582.25
2023-01-19T07:11:25.073Z,95608.31
2023-01-19T07:13:40.614Z,95561.94
2023-01-19T07:16:10.988Z,95602.75
2023-01-19T07:18:39.356Z,95593.97
2023-01-19T07:21:08.884Z,95548.25
2023-01-19T07:23:38.194Z,95603.72
2023-01-19T07:26:06.254Z,95622.16
2023-01-19T07:28:34.492Z,95651.69
2023-01-19T07:31:02.605Z,95642.09
2023-01-19T07:33:31.380Z,95701.44
2023-01-19T07:35:59.323Z,95722.13
2023-01-19T07:38:28.598Z,95721.97
2023-01-19T07:41:01.808Z,95751.53
2023-01-19T07:43:29.834Z,95776.03
2023-01-19T07:45:58.221Z,95808.97
2023-01-19T07:48:26.477Z,95805.22
2023-01-19T07:50:54.740Z,95848.84
2023-01-19T07:53:22.559Z,95863.81
2023-01-19T07:55:56.803Z,95895.53
2023-01-19T07:58:25.050Z,95915.78
2023-01-19T08:00:53.891Z,95910.72
2023-01-19T08:03:22.062Z,95930.16
2023-01-19T08:05:51.744Z,95952.34
2023-01-19T08:08:20.257Z,95961.53
2023-01-19T08:10:51.545Z,95982.78
2023-01-19T08:13:20.781Z,95992.25
2023-01-19T08:15:50.700Z,95998.44
2023-01-19T08:18:19.510Z,96003.03
2023-01-19T08:20:47.706Z,95992.09
2023-01-19T08:23:18.076Z,96017.41
2023-01-19T08:25:46.318Z,96004.97
2023-01-19T08:28:16.933Z,96002.06
2023-01-19T08:30:53.795Z,96008.41
2023-01-19T08:33:22.087Z,95996.69
2023-01-19T08:35:51.540Z,96046.19
2023-01-19T08:38:21.236Z,96011.47
2023-01-19T08:40:49.951Z,96053.66
2023-01-19T08:43:18.491Z,96072.00
2023-01-19T08:45:52.140Z,96052.53
2023-01-19T08:48:23.465Z,96035.00
2023-01-19T08:50:52.697Z,96083.78
2023-01-19T08:53:21.154Z,96070.06
2023-01-19T08:55:49.104Z,96081.16
2023-01-19T08:58:17.584Z,96104.88
2023-01-19T09:00:45.542Z,96111.91
2023-01-19T09:03:14.802Z,96080.19
2023-01-19T09:05:42.750Z,96050.06
2023-01-19T09:08:13.025Z,96045.31
2023-01-19T09:10:46.558Z,96038.00
2023-01-19T09:13:14.754Z,96049.25
2023-01-19T09:15:44.099Z,96076.25
2023-01-19T09:18:15.884Z,96095.56
2023-01-19T09:20:45.397Z,96115.16
2023-01-19T09:23:15.630Z,96150.16
2023-01-19T09:25:45.198Z,96149.84
2023-01-19T09:28:15.532Z,96158.97
2023-01-19T09:30:44.492Z,96181.69
2023-01-19T09:33:15.731Z,96196.78
2023-01-19T09:35:45.475Z,96209.41
2023-01-19T09:38:13.499Z,96228.34
2023-01-19T09:40:44.541Z,96251.94
2023-01-19T09:43:38.605Z,96253.22
2023-01-19T09:46:13.353Z,96265.38
2023-01-19T09:48:47.732Z,96291.84
2023-01-19T09:51:19.629Z,96304.66
2023-01-19T09:54:05.996Z,96323.63
2023-01-19T09:56:34.376Z,96337.56
2023-01-19T09:59:10.648Z,96313.47
2023-01-19T10:01:51.831Z,96328.91
2023-01-19T10:04:33.436Z,96393.88
2023-01-19T10:07:10.614Z,96422.75
2023-01-19T10:09:49.683Z,96409.81
2023-01-19T10:12:30.478Z,96394.69
2023-01-19T10:15:07.526Z,96384.31
2023-01-19T10:17:48.245Z,96370.88
2023-01-19T10:20:24.330Z,96389.25
2023-01-19T10:22:52.146Z,96438.28
2023-01-19T10:25:24.650Z,96406.28
2023-01-19T10:27:52.786Z,96430.44
2023-01-19T10:30:24.981Z,96409.16
2023-01-19T10:32:53.812Z,96436.34
2023-01-19T10:35:25.419Z,96432.38
2023-01-19T10:37:56.350Z,96499.09
2023-01-19T10:40:32.083Z,96480.88
2023-01-19T10:43:00.734Z,96492.38
2023-01-19T10:45:31.546Z,96499.56
2023-01-19T10:48:02.231Z,96580.25
2023-01-19T10:50:34.387Z,96610.47
2023-01-19T10:53:05.804Z,96613.22
2023-01-19T10:55:37.772Z,96618.16
2023-01-19T10:58:06.968Z,96641.59
2023-01-19T11:00:38.568Z,96641.59
2023-01-19T11:03:23.679Z,96685.59
2023-01-19T11:05:53.095Z,96709.69
2023-01-19T11:08:25.087Z,96739.28
2023-01-19T11:11:02.425Z,96762.41
2023-01-19T11:13:30.556Z,96766.94
2023-01-19T11:16:04.771Z,96810.00
2023-01-19T11:18:35.107Z,96772.56
2023-01-19T11:21:08.463Z,96853.94
2023-01-19T11:23:43.097Z,96871.59
2023-01-19T11:26:16.579Z,96851.03
2023-01-19T11:28:49.112Z,96891.97
2023-01-19T11:31:21.645Z,96960.16
2023-01-19T11:33:52.050Z,96965.25
2023-01-19T11:36:22.725Z,97012.41
2023-01-19T11:38:53.271Z,97141.06
2023-01-19T11:41:23.879Z,97367.47
2023-01-19T11:43:55.764Z,97501.13
2023-01-19T11:46:27.715Z,97511.63
2023-01-19T11:49:02.131Z,97445.41
2023-01-19T11:51:37.365Z,97923.47
2023-01-19T11:54:16.266Z,98520.91
2023-01-19T11:56:44.987Z,98988.44
2023-01-19T11:59:14.198Z,99009.31
2023-01-19T12:01:50.754Z,98559.97
2023-01-19T12:04:24.801Z,98173.78
2023-01-19T12:06:56.390Z,97823.41
2023-01-19T12:09:27.980Z,97622.69
2023-01-19T12:11:59.651Z,97469.47
2023-01-19T12:14:32.935Z,97251.63
2023-01-19T12:17:04.431Z,97201.81
2023-01-19T12:19:43.362Z,97090.88
2023-01-19T12:22:15.159Z,96980.19
2023-01-19T12:24:48.232Z,97081.47
2023-01-19T12:27:23.434Z,97056.81
2023-01-19T12:29:51.860Z,97023.03
2023-01-19T12:32:21.196Z,96964.72
2023-01-19T12:34:50.090Z,96866.50
2023-01-19T12:37:38.376Z,96778.25
2023-01-19T12:40:26.156Z,96720.00
2023-01-19T12:43:00.865Z,96638.56
2023-01-19T12:45:33.209Z,96640.88
2023-01-19T12:48:02.349Z,96600.06
2023-01-19T12:50:36.141Z,96573.66
2023-01-19T12:53:16.468Z,96528.03
2023-01-19T12:55:46.852Z,96500.81
2023-01-19T12:58:18.726Z,96498.88
2023-01-19T13:00:49.352Z,96482.13
2023-01-19T13:03:46.846Z,96446.81
2023-01-19T13:06:14.921Z,96379.63
2023-01-19T13:09:01.152Z,96366.47
2023-01-19T13:11:34.223Z,96376.34
2023-01-19T13:14:35.485Z,96322.66
2023-01-19T13:17:17.829Z,96260.75
2023-01-19T13:19:50.314Z,96223.59
2023-01-19T13:23:04.630Z,96235.22
2023-01-19T13:25:36.682Z,96168.50
2023-01-19T13:28:12.020Z,96146.19
2023-01-19T13:30:53.223Z,96143.16
2023-01-19T13:33:24.467Z,96127.25
2023-01-19T13:35:58.792Z,96089.16
2023-01-19T13:38:28.063Z,96024.06
2023-01-19T13:41:01.199Z,95998.06
2023-01-19T13:43:37.283Z,95939.56
2023-01-19T13:46:05.708Z,95903.50
2023-01-19T13:48:34.065Z,95837.34
2023-01-19T13:51:04.461Z,95786.75
2023-01-19T13:53:33.352Z,95801.06
2023-01-19T13:56:20.645Z,95824.63
2023-01-19T13:59:11.772Z,95794.44
2023-01-19T14:01:41.706Z,95867.91
2023-01-19T14:04:28.780Z,95922.94
2023-01-19T14:06:59.035Z,95907.53
2023-01-19T14:09:27.006Z,95901.88
2023-01-19T14:12:17.586Z,95858.72
2023-01-19T14:14:48.303Z,95895.81
2023-01-19T14:17:23.450Z,95888.47
2023-01-19T14:19:52.096Z,95820.84
2023-01-19T14:22:20.116Z,95738.44
2023-01-19T14:24:48.120Z,95630.28
2023-01-19T14:27:24.281Z,95569.19
2023-01-19T14:29:55.040Z,95575.06
2023-01-19T14:32:25.038Z,95529.72
2023-01-19T14:34:54.853Z,95548.97
2023-01-19T14:37:26.460Z,95513.44
2023-01-19T14:39:59.461Z,95433.97
2023-01-19T14:42:34.460Z,95360.19
2023-01-19T14:45:03.945Z,95290.03
2023-01-19T14:47:38.513Z,95261.72
2023-01-19T14:50:18.711Z,95210.34
2023-01-19T14:52:53.822Z,95183.97
2023-01-19T14:55:25.144Z,95114.41
2023-01-19T14:57:55.426Z,95061.59
2023-01-19T15:00:23.771Z,95051.66
2023-01-19T15:02:51.839Z,95005.22
2023-01-19T15:05:20.640Z,95044.19
2023-01-19T15:07:57.330Z,95001.16
2023-01-19T15:10:36.896Z,94958.44
2023-01-19T15:13:06.465Z,94908.44
2023-01-19T15:15:39.205Z,94853.88
2023-01-19T15:18:13.072Z,94824.06
2023-01-19T15:20:40.945Z,94814.31
2023-01-19T15:23:11.525Z,94825.81
2023-01-19T15:25:42.916Z,94803.13
2023-01-19T15:28:19.692Z,94754.94
2023-01-19T15:30:52.805Z,94792.25
2023-01-19T15:33:24.952Z,94729.50
2023-01-19T15:35:54.432Z,94723.16
2023-01-19T15:38:22.513Z,94728.34
2023-01-19T15:40:51.691Z,94692.03
2023-01-19T15:43:22.147Z,94693.66
2023-01-19T15:46:03.675Z,94640.19
2023-01-19T15:48:33.877Z,94646.66
2023-01-19T15:51:04.186Z,94636.56
2023-01-19T15:53:32.493Z,94600.31
2023-01-19T15:56:04.744Z,94553.34
2023-01-19T15:58:34.242Z,94590.56
2023-01-19T16:01:02.659Z,94565.16
2023-01-19T16:03:30.800Z,94539.88
2023-01-19T16:06:04.224Z,94491.81
2023-01-19T16:08:32.208Z,94513.63
2023-01-19T16:11:05.493Z,94504.38
2023-01-19T16:13:35.270Z,94453.09
2023-01-19T16:16:04.716Z,94495.31
2023-01-19T16:18:40.836Z,94474.31
2023-01-19T16:21:09.345Z,94524.63
2023-01-19T16:23:37.195Z,94548.31
2023-01-19T16:26:08.337Z,94558.34
2023-01-19T16:28:41.972Z,94547.50
2023-01-19T16:31:09.773Z,94524.16
2023-01-19T16:33:37.566Z,94540.84
2023-01-19T16:36:19.262Z,94539.06
2023-01-19T16:38:47.173Z,94556.72
2023-01-19T16:41:15.191Z,94567.56
2023-01-19T16:43:44.514Z,94570.00
2023-01-19T16:46:20.326Z,94582.00
2023-01-19T16:48:48.151Z,94575.19
2023-01-19T16:51:16.267Z,94547.16
2023-01-19T16:53:47.109Z,94508.28
2023-01-19T16:56:15.787Z,94476.22
2023-01-19T16:58:45.349Z,94432.19
2023-01-19T17:01:17.244Z,94426.38
2023-01-19T17:03:46.756Z,94404.50
2023-01-19T17:06:18.259Z,94391.09
2023-01-19T17:08:47.216Z,94371.66
2023-01-19T17:11:20.571Z,94395.94
2023-01-19T17:13:51.381Z,94428.00
2023-01-19T17:16:19.312Z,94431.56
2023-01-19T17:18:47.338Z,94466.50
2023-01-19T17:21:17.813Z,94478.81
2023-01-19T17:23:47.008Z,94439.34
2023-01-19T17:26:15.361Z,94406.94
2023-01-19T17:28:43.597Z,94359.56
2023-01-19T17:31:17.681Z,94335.78
2023-01-19T17:33:50.631Z,94379.13
2023-01-19T17:36:22.338Z,94381.38
2023-01-19T17:38:50.768Z,94390.28
2023-01-19T17:41:21.343Z,94406.28
2023-01-19T17:43:51.310Z,94373.66
2023-01-19T17:46:22.224Z,94403.88
2023-01-19T17:48:53.547Z,94398.53
2023-01-19T17:51:22.949Z,94359.06
2023-01-19T17:53:52.291Z,94339.00
2023-01-19T17:56:22.155Z,94323.16
2023-01-19T17:58:51.108Z,94292.72
2023-01-19T18:01:22.332Z,94248.28
2023-01-19T18:03:50.546Z,94212.56
2023-01-19T18:06:18.953Z,94176.34
2023-01-19T18:08:47.993Z,94151.47
2023-01-19T18:11:17.841Z,94121.44
2023-01-19T18:13:48.112Z,94112.69
2023-01-19T18:16:18.339Z,94089.06
2023-01-19T18:18:49.682Z,94076.53
2023-01-19T18:21:17.945Z,94102.69
2023-01-19T18:23:46.246Z,94157.91
2023-01-19T18:26:16.624Z,94162.75
2023-01-19T18:28:44.749Z,94192.31
2023-01-19T18:31:14.579Z,94193.94
2023-01-19T18:33:43.030Z,94153.06
2023-01-19T18:36:12.633Z,94130.13
2023-01-19T18:38:48.566Z,94090.72
2023-01-19T18:41:18.648Z,94075.88
2023-01-19T18:43:46.942Z,94067.44
2023-01-19T18:46:16.215Z,94032.59
2023-01-19T18:48:44.286Z,94009.66
2023-01-19T18:51:15.856Z,93991.28
2023-01-19T18:53:44.108Z,93979.47
2023-01-19T18:56:13.730Z,93956.69
2023-01-19T18:58:42.361Z,93943.56
2023-01-19T19:01:19.909Z,93941.91
2023-01-19T19:03:48.193Z,93936.72
2023-01-19T19:06:20.540Z,93926.72
2023-01-19T19:08:49.891Z,93914.38
2023-01-19T19:11:18.407Z,93923.50
2023-01-19T19:13:46.570Z,93935.91
2023-01-19T19:16:14.823Z,93913.06
2023-01-19T19:18:43.073Z,93910.75
2023-01-19T19:21:13.075Z,93889.78
2023-01-19T19:23:42.483Z,93875.75
2023-01-19T19:26:12.265Z,93854.78
2023-01-19T19:28:41.891Z,93852.19
2023-01-19T19:31:11.783Z,93839.63
2023-01-19T19:33:40.282Z,93803.91
2023-01-19T19:36:09.681Z,93820.59
2023-01-19T19:38:37.984Z,93813.19
2023-01-19T19:41:08.509Z,93804.34
2023-01-19T19:43:37.323Z,93803.56
2023-01-19T19:46:07.228Z,93793.22
2023-01-19T19:48:39.012Z,93825.13
2023-01-19T19:51:17.392Z,93821.59
2023-01-19T19:53:45.963Z,93807.22
2023-01-19T19:56:15.508Z,93821.59
2023-01-19T19:58:44.190Z,93807.41
2023-01-19T20:01:14.387Z,93808.84
2023-01-19T20:03:43.029Z,93791.94
2023-01-19T20:06:13.929Z,93800.00
2023-01-19T20:08:42.261Z,93832.84
2023-01-19T20:11:11.888Z,93852.19
2023-01-19T20:13:42.683Z,93858.00
2023-01-19T20:16:12.555Z,93845.81
2023-01-19T20:18:42.222Z,93866.72
2023-01-19T20:21:15.591Z,93863.16
2023-01-19T20:23:44.640Z,93853.50
2023-01-19T20:26:15.156Z,93856.38
2023-01-19T20:28:44.466Z,93853.97
2023-01-19T20:31:13.970Z,93845.41
2023-01-19T20:33:42.405Z,93832.84
2023-01-19T20:36:11.638Z,93833.00
2023-01-19T20:38:40.110Z,93848.00
2023-01-19T20:41:09.233Z,93898.34
2023-01-19T20:43:37.586Z,93908.34
2023-01-19T20:46:07.168Z,93945.91
2023-01-19T20:48:35.301Z,94002.72
2023-01-19T20:51:04.989Z,94030.31
2023-01-19T20:53:33.511Z,94038.69
2023-01-19T20:56:06.061Z,94048.41
2023-01-19T20:58:34.736Z,94038.41
2023-01-19T21:01:12.910Z,94037.25
2023-01-19T21:03:41.241Z,94074.69
2023-01-19T21:06:09.356Z,94096.84
2023-01-19T21:08:37.935Z,94151.94
2023-01-19T21:11:07.196Z,94190.38
2023-01-19T21:13:35.778Z,94222.06
2023-01-19T21:16:04.587Z,94234.84
2023-01-19T21:18:34.190Z,94232.25
2023-01-19T21:21:02.069Z,94228.22
2023-01-19T21:23:30.233Z,94252.00
2023-01-19T21:26:00.206Z,94251.66
2023-01-19T21:28:29.009Z,94235.31
2023-01-19T21:30:59.508Z,94252.47
2023-01-19T21:33:27.921Z,94215.16
2023-01-19T21:35:58.770Z,94268.13
2023-01-19T21:38:32.734Z,94291.28
2023-01-19T21:41:00.521Z,94306.97
2023-01-19T21:43:28.353Z,94327.03
2023-01-19T21:45:56.312Z,94307.09
2023-01-19T21:48:24.263Z,94295.31
2023-01-19T21:50:58.998Z,94288.50
2023-01-19T21:53:26.843Z,94270.88
2023-01-19T21:55:54.905Z,94235.66
2023-01-19T21:58:24.150Z,94250.69
2023-01-19T22:00:52.148Z,94260.06
2023-01-19T22:03:20.079Z,94216.75
2023-01-19T22:05:48.107Z,94217.22
2023-01-19T22:08:17.389Z,94199.63
2023-01-19T22:10:45.269Z,94141.13
2023-01-19T22:13:13.188Z,94117.53
2023-01-19T22:15:49.688Z,94081.81
2023-01-19T22:18:17.548Z,94075.84
2023-01-19T22:20:46.008Z,94026.97
2023-01-19T22:23:13.819Z,94005.81
2023-01-19T22:25:43.265Z,94001.09
2023-01-19T22:28:11.203Z,93962.22
2023-01-19T22:30:39.298Z,93941.53
2023-01-19T22:33:07.244Z,93914.31
2023-01-19T22:35:35.167Z,93894.78
2023-01-19T22:38:03.111Z,93869.94
2023-01-19T22:40:30.902Z,93865.56
2023-01-19T22:43:00.097Z,93866.38
2023-01-19T22:45:28.017Z,93863.03
2023-01-19T22:47:56.160Z,93867.34
2023-01-19T22:50:24.035Z,93847.13
2023-01-19T22:52:56.464Z,93856.22
2023-01-19T22:55:24.493Z,93848.00
2023-01-19T22:57:52.472Z,93826.41
2023-01-19T23:00:23.037Z,93819.63
2023-01-19T23:02:51.085Z,93813.66
2023-01-19T23:05:19.075Z,93802.88
2023-01-19T23:07:46.968Z,93772.91
2023-01-19T23:10:14.974Z,93747.38
2023-01-19T23:12:42.924Z,93780.13
2023-01-19T23:15:11.814Z,93759.19
2023-01-19T23:17:43.624Z,93755.13
2023-01-19T23:20:12.813Z,93733.91
2023-01-19T23:22:40.782Z,93723.72
2023-01-19T23:25:09.250Z,93712.94
2023-01-19T23:27:37.033Z,93702.50
2023-01-19T23:30:05.550Z,93707.44
2023-01-19T23:32:33.535Z,93695.84
2023-01-19T23:35:02.819Z,93702.44
2023-01-19T23:37:30.756Z,93710.03
2023-01-19T23:39:58.631Z,93702.63
2023-01-19T23:42:26.767Z,93685.56
2023-01-19T23:44:55.328Z,93694.88
2023-01-19T23:47:23.298Z,93684.09
2023-01-19T23:49:51.241Z,93672.31
2023-01-19T23:52:20.526Z,93665.72
2023-01-19T23:54:48.659Z,93656.69
2023-01-19T23:57:17.722Z,93668.31
2023-01-19T23:59:45.739Z,93666.53
